Historique des mesures à Cassis (13260), France
Quotidien Résumé Novembre 28, 2020 Unités:  Métrique    US   Métrique/US
Quotidien Hebdomadaire Mensuel Annuel
  Actuel: Maximum: Minimum: Moyenne:
Température: 16.1 °C 16.4 °C 15.2 °C 15.7 °C
Point de rosée: 6.5 °C 10.3 °C 6.5 °C 9.5 °C
Humidité: 53% 71% 53% 66%
Vitesse du vent: 2.5km/h 11.9km/h 0km/h 5.6km/h
Rafales: 11.5km/h 29.2km/h - -
VentNE - - East
Pression: 1006.5 hPa 1010.3 hPa 1005.2 hPa -
Précipitations: 0.0 mm      
Historical Graphs
 
 
Mesures pour : Novembre 28, 2020
Heure Temperature Point de rosée Pression Vent Vitesse du vent Rafales Humidité Pluie (par heure)
00:10 15.3 °C 9.9 °C 1010.3 hPa NE 10.8 km/h 15.8 km/h 70% 0.0 mm
01:11 15.6 °C 10.2 °C 1009.8 hPa NE 6.1 km/h 18 km/h 70% 0.0 mm
02:10 15.6 °C 10.2 °C 1009.2 hPa East 6.1 km/h 16.6 km/h 70% 0.0 mm
03:11 15.4 °C 10 °C 1008.8 hPa SE 2.5 km/h 8.6 km/h 70% 0.0 mm
04:10 15.4 °C 10 °C 1008.5 hPa NE 11.2 km/h 13.7 km/h 70% 0.0 mm
05:11 15.4 °C 10 °C 1007.7 hPa NE 5.4 km/h 16.6 km/h 70% 0.0 mm
06:10 15.3 °C 10.1 °C 1007.1 hPa Calm   29.2 km/h 71% 0.0 mm
07:12 15.2 °C 10 °C 1007.1 hPa ESE 4 km/h 8.3 km/h 71% 0.0 mm
08:10 15.3 °C 9.7 °C 1007.1 hPa ESE 10.1 km/h 18.7 km/h 69% 0.0 mm
10:10 16 °C 10.1 °C 1007.6 hPa East 5 km/h 14 km/h 68% 0.0 mm
11:11 16.2 °C 10.3 °C 1007.5 hPa ENE 8.3 km/h 16.6 km/h 68% 0.0 mm
12:10 16.4 °C 10.3 °C 1006.9 hPa East 9.4 km/h 18.4 km/h 67% 0.0 mm
13:11 16.2 °C 10.3 °C 1006.6 hPa ESE 11.9 km/h 11.9 km/h 68% 0.0 mm
14:10 16.3 °C 10.2 °C 1006.0 hPa Calm   14 km/h 67% 0.0 mm
15:11 15.8 °C 9.9 °C 1006.1 hPa Calm   19.1 km/h 68% 0.0 mm
16:10 15.7 °C 9.8 °C 1005.6 hPa ESE 6.5 km/h 16.2 km/h 68% 0.0 mm
17:11 15.6 °C 9.1 °C 1005.2 hPa Calm   22.3 km/h 65% 0.0 mm
18:10 15.7 °C 8 °C 1005.3 hPa NNE 4 km/h 23.4 km/h 60% 0.0 mm
19:11 15.8 °C 7.3 °C 1005.7 hPa NE 5.4 km/h 25.6 km/h 57% 0.0 mm
20:10 16.2 °C 6.6 °C 1006.4 hPa SE 8.6 km/h 19.4 km/h 53% 0.0 mm
21:11 16.1 °C 6.5 °C 1006.5 hPa NE 2.5 km/h 11.5 km/h 53% 0.0 mm
Observations météo à CASSIS
WU-History script by Weather Underground - 2 mb